sensor_id;sensor_type;location;lat;lon;timestamp;pressure;altitude;pressure_sealevel;temperature;humidity
80116;BME280;69423;47.608;19.366;2023-08-07T00:00:00;98069.94;;;14.80;78.01
80116;BME280;69423;47.608;19.366;2023-08-07T00:00:32;98077.97;;;14.80;77.14
80116;BME280;69423;47.608;19.366;2023-08-07T00:01:03;98073.91;;;14.77;77.10
80116;BME280;69423;47.608;19.366;2023-08-07T00:01:34;98075.19;;;14.75;76.73
80116;BME280;69423;47.608;19.366;2023-08-07T00:02:05;98082.53;;;14.80;76.94
80116;BME280;69423;47.608;19.366;2023-08-07T00:02:37;98083.13;;;14.82;77.13
80116;BME280;69423;47.608;19.366;2023-08-07T00:03:09;98080.19;;;14.71;76.91
80116;BME280;69423;47.608;19.366;2023-08-07T00:03:40;98075.84;;;14.70;77.73
80116;BME280;69423;47.608;19.366;2023-08-07T00:04:11;98079.25;;;14.77;76.92
80116;BME280;69423;47.608;19.366;2023-08-07T00:04:42;98081.38;;;14.75;77.02
80116;BME280;69423;47.608;19.366;2023-08-07T00:05:13;98083.47;;;14.73;77.29
80116;BME280;69423;47.608;19.366;2023-08-07T00:05:47;98081.22;;;14.70;77.69
80116;BME280;69423;47.608;19.366;2023-08-07T00:06:19;98094.53;;;14.77;76.93
80116;BME280;69423;47.608;19.366;2023-08-07T00:06:50;98082.16;;;14.76;76.74
80116;BME280;69423;47.608;19.366;2023-08-07T00:07:21;98090.13;;;14.71;76.71
80116;BME280;69423;47.608;19.366;2023-08-07T00:07:52;98082.41;;;14.74;76.98
80116;BME280;69423;47.608;19.366;2023-08-07T00:08:23;98085.91;;;14.75;76.48
80116;BME280;69423;47.608;19.366;2023-08-07T00:08:54;98088.81;;;14.73;76.95
80116;BME280;69423;47.608;19.366;2023-08-07T00:09:26;98078.91;;;14.74;76.91
80116;BME280;69423;47.608;19.366;2023-08-07T00:09:57;98081.69;;;14.79;76.22
80116;BME280;69423;47.608;19.366;2023-08-07T00:10:28;98092.22;;;14.81;76.48
80116;BME280;69423;47.608;19.366;2023-08-07T00:11:10;98090.81;;;14.78;76.19
80116;BME280;69423;47.608;19.366;2023-08-07T00:11:41;98087.06;;;14.79;76.76
80116;BME280;69423;47.608;19.366;2023-08-07T00:12:12;98089.31;;;14.82;76.35
80116;BME280;69423;47.608;19.366;2023-08-07T00:12:43;98086.38;;;14.84;76.82
80116;BME280;69423;47.608;19.366;2023-08-07T00:13:14;98084.97;;;14.81;76.65
80116;BME280;69423;47.608;19.366;2023-08-07T00:13:45;98084.16;;;14.81;76.79
80116;BME280;69423;47.608;19.366;2023-08-07T00:14:16;98091.28;;;14.75;76.97
80116;BME280;69423;47.608;19.366;2023-08-07T00:14:49;98087.66;;;14.69;76.62
80116;BME280;69423;47.608;19.366;2023-08-07T00:15:21;98079.72;;;14.74;76.40
80116;BME280;69423;47.608;19.366;2023-08-07T00:15:52;98076.81;;;14.76;76.10
80116;BME280;69423;47.608;19.366;2023-08-07T00:16:23;98086.84;;;14.81;76.62
80116;BME280;69423;47.608;19.366;2023-08-07T00:16:54;98079.59;;;14.81;76.22
80116;BME280;69423;47.608;19.366;2023-08-07T00:17:25;98084.16;;;14.81;76.53
80116;BME280;69423;47.608;19.366;2023-08-07T00:17:56;98081.94;;;14.77;75.85
80116;BME280;69423;47.608;19.366;2023-08-07T00:18:28;98087.31;;;14.77;76.12
80116;BME280;69423;47.608;19.366;2023-08-07T00:18:59;98065.25;;;14.75;76.83
80116;BME280;69423;47.608;19.366;2023-08-07T00:19:30;98079.25;;;14.77;75.88
80116;BME280;69423;47.608;19.366;2023-08-07T00:20:02;98072.13;;;14.83;76.60
80116;BME280;69423;47.608;19.366;2023-08-07T00:20:33;98082.88;;;14.83;76.62
80116;BME280;69423;47.608;19.366;2023-08-07T00:21:04;98074.81;;;14.83;75.75
80116;BME280;69423;47.608;19.366;2023-08-07T00:21:35;98077.28;;;14.85;76.01
80116;BME280;69423;47.608;19.366;2023-08-07T00:22:06;98081.84;;;14.84;75.49
80116;BME280;69423;47.608;19.366;2023-08-07T00:22:37;98079.00;;;14.79;76.12
80116;BME280;69423;47.608;19.366;2023-08-07T00:23:08;98074.13;;;14.76;76.13
80116;BME280;69423;47.608;19.366;2023-08-07T00:23:39;98076.31;;;14.79;75.96
80116;BME280;69423;47.608;19.366;2023-08-07T00:24:10;98073.75;;;14.72;75.86
80116;BME280;69423;47.608;19.366;2023-08-07T00:24:41;98074.81;;;14.71;76.08
80116;BME280;69423;47.608;19.366;2023-08-07T00:25:12;98079.25;;;14.77;76.13
80116;BME280;69423;47.608;19.366;2023-08-07T00:25:43;98073.75;;;14.72;75.52
80116;BME280;69423;47.608;19.366;2023-08-07T00:26:15;98076.44;;;14.72;75.76
80116;BME280;69423;47.608;19.366;2023-08-07T00:26:46;98083.91;;;14.70;76.20
80116;BME280;69423;47.608;19.366;2023-08-07T00:27:17;98076.44;;;14.72;75.84
80116;BME280;69423;47.608;19.366;2023-08-07T00:27:49;98067.69;;;14.77;76.02
80116;BME280;69423;47.608;19.366;2023-08-07T00:28:20;98075.28;;;14.80;76.25
80116;BME280;69423;47.608;19.366;2023-08-07T00:28:51;98074.22;;;14.81;75.47
80116;BME280;69423;47.608;19.366;2023-08-07T00:29:22;98078.56;;;14.82;75.64
80116;BME280;69423;47.608;19.366;2023-08-07T00:29:53;98073.31;;;14.75;75.78
80116;BME280;69423;47.608;19.366;2023-08-07T00:30:24;98072.38;;;14.70;76.17
80116;BME280;69423;47.608;19.366;2023-08-07T00:30:56;98080.78;;;14.73;76.59
80116;BME280;69423;47.608;19.366;2023-08-07T00:31:27;98081.38;;;14.75;75.81
80116;BME280;69423;47.608;19.366;2023-08-07T00:32:02;98082.75;;;14.78;75.67
80116;BME280;69423;47.608;19.366;2023-08-07T00:32:33;98069.56;;;14.76;76.01
80116;BME280;69423;47.608;19.366;2023-08-07T00:33:04;98069.94;;;14.80;75.43
80116;BME280;69423;47.608;19.366;2023-08-07T00:33:35;98077.97;;;14.80;76.23
80116;BME280;69423;47.608;19.366;2023-08-07T00:34:06;98084.63;;;14.77;76.18
80116;BME280;69423;47.608;19.366;2023-08-07T00:34:37;98069.81;;;14.75;76.31
80116;BME280;69423;47.608;19.366;2023-08-07T00:35:08;98075.53;;;14.78;76.17
80116;BME280;69423;47.608;19.366;2023-08-07T00:35:39;98078.78;;;14.69;75.33
80116;BME280;69423;47.608;19.366;2023-08-07T00:36:10;98077.03;;;14.74;76.53
80116;BME280;69423;47.608;19.366;2023-08-07T00:36:41;98078.22;;;14.67;76.73
80116;BME280;69423;47.608;19.366;2023-08-07T00:37:12;98088.25;;;14.71;76.18
80116;BME280;69423;47.608;19.366;2023-08-07T00:37:43;98081.81;;;14.72;76.28
80116;BME280;69423;47.608;19.366;2023-08-07T00:38:15;98070.75;;;14.69;75.99
80116;BME280;69423;47.608;19.366;2023-08-07T00:38:46;98082.88;;;14.71;76.29
80116;BME280;69423;47.608;19.366;2023-08-07T00:39:17;98070.75;;;14.69;76.09
80116;BME280;69423;47.608;19.366;2023-08-07T00:39:48;98079.00;;;14.67;76.21
80116;BME280;69423;47.608;19.366;2023-08-07T00:40:19;98073.88;;;14.66;76.49
80116;BME280;69423;47.608;19.366;2023-08-07T00:40:50;98069.31;;;14.66;76.87
80116;BME280;69423;47.608;19.366;2023-08-07T00:41:21;98080.19;;;14.71;76.73
80116;BME280;69423;47.608;19.366;2023-08-07T00:41:52;98078.09;;;14.73;76.10
80116;BME280;69423;47.608;19.366;2023-08-07T00:42:23;98079.38;;;14.71;76.21
80116;BME280;69423;47.608;19.366;2023-08-07T00:42:54;98082.66;;;14.73;76.05
80116;BME280;69423;47.608;19.366;2023-08-07T00:43:25;98079.00;;;14.67;75.98
80116;BME280;69423;47.608;19.366;2023-08-07T00:43:56;98079.97;;;14.73;76.04
80116;BME280;69423;47.608;19.366;2023-08-07T00:44:27;98074.59;;;14.73;76.54
80116;BME280;69423;47.608;19.366;2023-08-07T00:44:58;98077.38;;;14.66;76.43
80116;BME280;69423;47.608;19.366;2023-08-07T00:45:31;98077.38;;;14.66;75.93
80116;BME280;69423;47.608;19.366;2023-08-07T00:46:05;98075.75;;;14.65;76.62
80116;BME280;69423;47.608;19.366;2023-08-07T00:46:36;98073.66;;;14.67;76.80
80116;BME280;69423;47.608;19.366;2023-08-07T00:47:10;98063.50;;;14.69;76.77
80116;BME280;69423;47.608;19.366;2023-08-07T00:47:42;98072.00;;;14.66;76.81
80116;BME280;69423;47.608;19.366;2023-08-07T00:48:14;98066.63;;;14.66;76.70
80116;BME280;69423;47.608;19.366;2023-08-07T00:48:46;98076.34;;;14.67;76.14
80116;BME280;69423;47.608;19.366;2023-08-07T00:49:18;98070.16;;;14.67;75.65
80116;BME280;69423;47.608;19.366;2023-08-07T00:49:50;98068.72;;;14.64;76.16
80116;BME280;69423;47.608;19.366;2023-08-07T00:50:22;98067.47;;;14.67;77.07
80116;BME280;69423;47.608;19.366;2023-08-07T00:50:53;98072.94;;;14.72;76.32
80116;BME280;69423;47.608;19.366;2023-08-07T00:51:25;98076.00;;;14.75;76.51
80116;BME280;69423;47.608;19.366;2023-08-07T00:51:56;98070.25;;;14.72;76.57
80116;BME280;69423;47.608;19.366;2023-08-07T00:52:28;98076.19;;;14.62;77.03
80116;BME280;69423;47.608;19.366;2023-08-07T00:52:59;98073.75;;;14.61;76.77
80116;BME280;69423;47.608;19.366;2023-08-07T00:53:31;98072.59;;;14.56;76.20
80116;BME280;69423;47.608;19.366;2023-08-07T00:54:04;98073.75;;;14.61;76.88
80116;BME280;69423;47.608;19.366;2023-08-07T00:54:35;98077.94;;;14.56;76.97
80116;BME280;69423;47.608;19.366;2023-08-07T00:55:08;98066.59;;;14.54;77.00
80116;BME280;69423;47.608;19.366;2023-08-07T00:55:39;98065.56;;;14.55;77.39
80116;BME280;69423;47.608;19.366;2023-08-07T00:56:10;98073.41;;;14.57;76.92
80116;BME280;69423;47.608;19.366;2023-08-07T00:56:41;98067.84;;;14.52;76.77
80116;BME280;69423;47.608;19.366;2023-08-07T00:57:13;98074.44;;;14.56;77.55
80116;BME280;69423;47.608;19.366;2023-08-07T00:57:47;98074.56;;;14.61;76.79
80116;BME280;69423;47.608;19.366;2023-08-07T00:58:18;98081.09;;;14.65;77.19
80116;BME280;69423;47.608;19.366;2023-08-07T00:58:49;98074.09;;;14.64;76.43
80116;BME280;69423;47.608;19.366;2023-08-07T00:59:21;98072.34;;;14.58;77.57
80116;BME280;69423;47.608;19.366;2023-08-07T00:59:52;98072.34;;;14.58;76.99
80116;BME280;69423;47.608;19.366;2023-08-07T01:00:24;98076.19;;;14.62;76.96
80116;BME280;69423;47.608;19.366;2023-08-07T01:00:55;98073.97;;;14.59;77.04
80116;BME280;69423;47.608;19.366;2023-08-07T01:01:27;98076.19;;;14.62;77.05
80116;BME280;69423;47.608;19.366;2023-08-07T01:01:58;98077.84;;;14.63;76.21
80116;BME280;69423;47.608;19.366;2023-08-07T01:02:29;98079.94;;;14.61;76.57
80116;BME280;69423;47.608;19.366;2023-08-07T01:03:01;98073.41;;;14.57;76.96
80116;BME280;69423;47.608;19.366;2023-08-07T01:03:32;98078.28;;;14.60;76.76
80116;BME280;69423;47.608;19.366;2023-08-07T01:04:03;98072.34;;;14.58;77.24
80116;BME280;69423;47.608;19.366;2023-08-07T01:04:34;98077.03;;;14.63;76.96
80116;BME280;69423;47.608;19.366;2023-08-07T01:05:05;98069.22;;;14.61;76.47
80116;BME280;69423;47.608;19.366;2023-08-07T01:05:37;98083.66;;;14.60;76.54
80116;BME280;69423;47.608;19.366;2023-08-07T01:06:08;98072.59;;;14.56;76.58
80116;BME280;69423;47.608;19.366;2023-08-07T01:06:39;98074.22;;;14.57;76.36
80116;BME280;69423;47.608;19.366;2023-08-07T01:07:10;98082.03;;;14.59;76.58
80116;BME280;69423;47.608;19.366;2023-08-07T01:07:41;98074.56;;;14.61;76.55
80116;BME280;69423;47.608;19.366;2023-08-07T01:08:12;98074.88;;;14.53;76.77
80116;BME280;69423;47.608;19.366;2023-08-07T01:08:44;98067.28;;;14.50;76.94
80116;BME280;69423;47.608;19.366;2023-08-07T01:09:15;98077.25;;;14.61;77.49
80116;BME280;69423;47.608;19.366;2023-08-07T01:09:46;98083.22;;;14.63;77.06
80116;BME280;69423;47.608;19.366;2023-08-07T01:10:18;98075.59;;;14.60;76.54
80116;BME280;69423;47.608;19.366;2023-08-07T01:11:57;98077.84;;;14.63;77.55
80116;BME280;69423;47.608;19.366;2023-08-07T01:12:37;98081.56;;;14.62;77.54
80116;BME280;69423;47.608;19.366;2023-08-07T01:13:28;98074.94;;;14.65;77.07
80116;BME280;69423;47.608;19.366;2023-08-07T01:14:28;98072.19;;;14.53;77.27
80116;BME280;69423;47.608;19.366;2023-08-07T01:15:14;98067.63;;;14.53;77.30
80116;BME280;69423;47.608;19.366;2023-08-07T01:15:48;98072.78;;;14.55;77.32
80116;BME280;69423;47.608;19.366;2023-08-07T01:16:35;98069.06;;;14.56;77.25
80116;BME280;69423;47.608;19.366;2023-08-07T01:17:11;98068.03;;;14.57;77.75
80116;BME280;69423;47.608;19.366;2023-08-07T01:17:46;98066.38;;;14.56;76.75
80116;BME280;69423;47.608;19.366;2023-08-07T01:18:19;98072.34;;;14.58;76.94
80116;BME280;69423;47.608;19.366;2023-08-07T01:18:52;98077.13;;;14.56;77.57
80116;BME280;69423;47.608;19.366;2023-08-07T01:19:27;98070.31;;;14.53;76.34
80116;BME280;69423;47.608;19.366;2023-08-07T01:19:58;98074.66;;;14.54;77.00
80116;BME280;69423;47.608;19.366;2023-08-07T01:20:30;98074.22;;;14.57;77.41
80116;BME280;69423;47.608;19.366;2023-08-07T01:21:03;98070.09;;;14.55;77.03
80116;BME280;69423;47.608;19.366;2023-08-07T01:21:34;98071.88;;;14.61;77.59
80116;BME280;69423;47.608;19.366;2023-08-07T01:22:12;98080.38;;;14.58;78.01
80116;BME280;69423;47.608;19.366;2023-08-07T01:22:44;98075.31;;;14.50;77.10
80116;BME280;69423;47.608;19.366;2023-08-07T01:23:15;98070.53;;;14.52;77.08
80116;BME280;69423;47.608;19.366;2023-08-07T01:23:49;98076.31;;;14.55;77.35
80116;BME280;69423;47.608;19.366;2023-08-07T01:24:20;98078.75;;;14.57;77.32
80116;BME280;69423;47.608;19.366;2023-08-07T01:24:51;98077.94;;;14.56;77.05
80116;BME280;69423;47.608;19.366;2023-08-07T01:25:22;98079.19;;;14.54;77.28
80116;BME280;69423;47.608;19.366;2023-08-07T01:25:53;98072.19;;;14.53;76.75
80116;BME280;69423;47.608;19.366;2023-08-07T01:26:24;98082.91;;;14.53;77.24
80116;BME280;69423;47.608;19.366;2023-08-07T01:27:00;98069.63;;;14.46;77.23
80116;BME280;69423;47.608;19.366;2023-08-07T01:27:46;98069.94;;;14.50;77.75
80116;BME280;69423;47.608;19.366;2023-08-07T01:28:27;98072.78;;;14.55;77.46
80116;BME280;69423;47.608;19.366;2023-08-07T01:29:12;98068.03;;;14.57;77.13
80116;BME280;69423;47.608;19.366;2023-08-07T01:29:58;98074.06;;;14.52;77.25
80116;BME280;69423;47.608;19.366;2023-08-07T01:30:35;98078.16;;;14.55;76.79
80116;BME280;69423;47.608;19.366;2023-08-07T01:31:14;98082.47;;;14.56;77.58
80116;BME280;69423;47.608;19.366;2023-08-07T01:31:49;98077.34;;;14.54;78.03
80116;BME280;69423;47.608;19.366;2023-08-07T01:33:28;98083.38;;;14.50;77.25
80116;BME280;69423;47.608;19.366;2023-08-07T01:34:05;98068.78;;;14.46;78.00
80116;BME280;69423;47.608;19.366;2023-08-07T01:34:41;98076.81;;;14.46;76.76
80116;BME280;69423;47.608;19.366;2023-08-07T01:35:14;98083.25;;;14.45;76.97
80116;BME280;69423;47.608;19.366;2023-08-07T01:35:52;98081.63;;;14.44;77.54
80116;BME280;69423;47.608;19.366;2023-08-07T01:36:27;98083.84;;;14.47;77.48
80116;BME280;69423;47.608;19.366;2023-08-07T01:37:01;98090.00;;;14.47;77.06
80116;BME280;69423;47.608;19.366;2023-08-07T01:37:37;98093.06;;;14.51;77.73
80116;BME280;69423;47.608;19.366;2023-08-07T01:38:11;98090.38;;;14.51;78.04
80116;BME280;69423;47.608;19.366;2023-08-07T01:38:43;98091.66;;;14.48;77.44
80116;BME280;69423;47.608;19.366;2023-08-07T01:39:18;98093.28;;;14.49;77.60
80116;BME280;69423;47.608;19.366;2023-08-07T01:39:51;98089.31;;;14.52;77.36
80116;BME280;69423;47.608;19.366;2023-08-07T01:40:23;98095.09;;;14.55;77.72
80116;BME280;69423;47.608;19.366;2023-08-07T01:40:56;98089.56;;;14.50;77.99
80116;BME280;69423;47.608;19.366;2023-08-07T01:41:28;98096.66;;;14.45;77.79
80116;BME280;69423;47.608;19.366;2023-08-07T01:41:59;98091.88;;;14.47;77.84
80116;BME280;69423;47.608;19.366;2023-08-07T01:42:32;98094.56;;;14.47;78.23
80116;BME280;69423;47.608;19.366;2023-08-07T01:43:04;98094.47;;;14.53;78.31
80116;BME280;69423;47.608;19.366;2023-08-07T01:43:35;98099.34;;;14.45;78.08
80116;BME280;69423;47.608;19.366;2023-08-07T01:44:06;98090.72;;;14.43;77.84
80116;BME280;69423;47.608;19.366;2023-08-07T01:44:38;98090.44;;;14.32;78.31
80116;BME280;69423;47.608;19.366;2023-08-07T01:45:09;98100.25;;;14.38;77.91
80116;BME280;69423;47.608;19.366;2023-08-07T01:45:40;98097.13;;;14.42;77.93
80116;BME280;69423;47.608;19.366;2023-08-07T01:46:11;98092.69;;;14.47;77.67
80116;BME280;69423;47.608;19.366;2023-08-07T01:46:42;98096.19;;;14.48;78.23
80116;BME280;69423;47.608;19.366;2023-08-07T01:47:13;98104.69;;;14.45;77.44
80116;BME280;69423;47.608;19.366;2023-08-07T01:47:44;98101.06;;;14.39;78.18
80116;BME280;69423;47.608;19.366;2023-08-07T01:48:15;98102.50;;;14.42;78.10
80116;BME280;69423;47.608;19.366;2023-08-07T01:48:46;98112.16;;;14.43;78.45
80116;BME280;69423;47.608;19.366;2023-08-07T01:49:17;98110.59;;;14.35;78.23
80116;BME280;69423;47.608;19.366;2023-08-07T01:49:48;98103.53;;;14.41;78.30
80116;BME280;69423;47.608;19.366;2023-08-07T01:50:23;98109.09;;;14.39;78.99
80116;BME280;69423;47.608;19.366;2023-08-07T01:50:54;98098.03;;;14.35;78.67
80116;BME280;69423;47.608;19.366;2023-08-07T01:51:26;98112.94;;;14.31;78.61
80116;BME280;69423;47.608;19.366;2023-08-07T01:51:57;98105.84;;;14.37;78.45
80116;BME280;69423;47.608;19.366;2023-08-07T01:52:28;98105.03;;;14.36;78.35
80116;BME280;69423;47.608;19.366;2023-08-07T01:52:59;98114.56;;;14.32;78.48
80116;BME280;69423;47.608;19.366;2023-08-07T01:53:31;98109.81;;;14.34;78.87
80116;BME280;69423;47.608;19.366;2023-08-07T01:54:02;98107.72;;;14.36;78.37
80116;BME280;69423;47.608;19.366;2023-08-07T01:54:33;98103.75;;;14.39;78.77
80116;BME280;69423;47.608;19.366;2023-08-07T01:55:04;98109.22;;;14.32;78.79
80116;BME280;69423;47.608;19.366;2023-08-07T01:55:35;98109.81;;;14.34;78.75
80116;BME280;69423;47.608;19.366;2023-08-07T01:56:06;98119.03;;;14.38;79.25
80116;BME280;69423;47.608;19.366;2023-08-07T01:56:37;98112.94;;;14.31;78.71
80116;BME280;69423;47.608;19.366;2023-08-07T01:57:08;98118.75;;;14.28;79.29
80116;BME280;69423;47.608;19.366;2023-08-07T01:57:39;98118.75;;;14.28;78.71
80116;BME280;69423;47.608;19.366;2023-08-07T01:58:11;98109.31;;;14.26;79.14
80116;BME280;69423;47.608;19.366;2023-08-07T01:58:43;98117.72;;;14.29;79.55
80116;BME280;69423;47.608;19.366;2023-08-07T01:59:14;98121.66;;;14.27;79.06
80116;BME280;69423;47.608;19.366;2023-08-07T01:59:45;98112.22;;;14.24;79.02
80116;BME280;69423;47.608;19.366;2023-08-07T02:00:16;98104.53;;;14.28;79.30
80116;BME280;69423;47.608;19.366;2023-08-07T02:00:47;98120.47;;;14.23;79.46
80116;BME280;69423;47.608;19.366;2023-08-07T02:01:18;98113.94;;;14.18;79.07
80116;BME280;69423;47.608;19.366;2023-08-07T02:01:49;98118.03;;;14.21;78.79
80116;BME280;69423;47.608;19.366;2023-08-07T02:02:20;98122.13;;;14.24;79.10
80116;BME280;69423;47.608;19.366;2023-08-07T02:02:51;98114.88;;;14.24;78.95
80116;BME280;69423;47.608;19.366;2023-08-07T02:03:22;98116.84;;;14.17;79.36
80116;BME280;69423;47.608;19.366;2023-08-07T02:03:54;98120.72;;;14.21;79.79
80116;BME280;69423;47.608;19.366;2023-08-07T02:04:25;98108.94;;;14.22;80.03
80116;BME280;69423;47.608;19.366;2023-08-07T02:04:56;98124.00;;;14.23;79.84
80116;BME280;69423;47.608;19.366;2023-08-07T02:05:27;98120.25;;;14.24;79.46
80116;BME280;69423;47.608;19.366;2023-08-07T02:05:58;98122.13;;;14.24;79.14
80116;BME280;69423;47.608;19.366;2023-08-07T02:06:29;98117.34;;;14.26;78.86
80116;BME280;69423;47.608;19.366;2023-08-07T02:07:00;98118.38;;;14.25;78.82
80116;BME280;69423;47.608;19.366;2023-08-07T02:07:31;98119.56;;;14.29;79.28
80116;BME280;69423;47.608;19.366;2023-08-07T02:08:02;98114.78;;;14.31;79.30
80116;BME280;69423;47.608;19.366;2023-08-07T02:08:33;98118.31;;;14.31;78.65
80116;BME280;69423;47.608;19.366;2023-08-07T02:09:04;98121.44;;;14.28;78.84
80116;BME280;69423;47.608;19.366;2023-08-07T02:09:35;98120.72;;;14.21;79.25
80116;BME280;69423;47.608;19.366;2023-08-07T02:10:06;98126.09;;;14.21;78.90
80116;BME280;69423;47.608;19.366;2023-08-07T02:10:38;98125.63;;;14.24;79.09
80116;BME280;69423;47.608;19.366;2023-08-07T02:11:09;98127.50;;;14.24;79.13
80116;BME280;69423;47.608;19.366;2023-08-07T02:11:40;98121.75;;;14.20;79.64
80116;BME280;69423;47.608;19.366;2023-08-07T02:12:11;98120.56;;;14.16;79.29
80116;BME280;69423;47.608;19.366;2023-08-07T02:12:42;98122.94;;;14.24;78.97
80116;BME280;69423;47.608;19.366;2023-08-07T02:13:13;98121.91;;;14.25;79.13
80116;BME280;69423;47.608;19.366;2023-08-07T02:13:44;98121.06;;;14.25;78.82
80116;BME280;69423;47.608;19.366;2023-08-07T02:14:15;98124.72;;;14.30;78.85
80116;BME280;69423;47.608;19.366;2023-08-07T02:14:46;98122.50;;;14.27;79.20
80116;BME280;69423;47.608;19.366;2023-08-07T02:15:17;98118.75;;;14.28;79.17
80116;BME280;69423;47.608;19.366;2023-08-07T02:15:48;98121.44;;;14.28;79.55
80116;BME280;69423;47.608;19.366;2023-08-07T02:16:19;98121.66;;;14.27;79.77
80116;BME280;69423;47.608;19.366;2023-08-07T02:16:50;98122.25;;;14.29;78.89
80116;BME280;69423;47.608;19.366;2023-08-07T02:17:21;98123.75;;;14.25;79.49
80116;BME280;69423;47.608;19.366;2023-08-07T02:17:53;98133.66;;;14.24;79.81
80116;BME280;69423;47.608;19.366;2023-08-07T02:18:24;98123.84;;;14.18;78.93
80116;BME280;69423;47.608;19.366;2023-08-07T02:18:55;98122.22;;;14.17;79.48
80116;BME280;69423;47.608;19.366;2023-08-07T02:19:26;98120.13;;;14.19;79.13
80116;BME280;69423;47.608;19.366;2023-08-07T02:19:57;98122.13;;;14.24;79.02
80116;BME280;69423;47.608;19.366;2023-08-07T02:20:28;98129.34;;;14.23;78.01
80116;BME280;69423;47.608;19.366;2023-08-07T02:20:59;98118.38;;;14.25;79.25
80116;BME280;69423;47.608;19.366;2023-08-07T02:21:31;98123.53;;;14.26;78.67
80116;BME280;69423;47.608;19.366;2023-08-07T02:22:03;98118.97;;;14.27;78.22
80116;BME280;69423;47.608;19.366;2023-08-07T02:22:34;98116.88;;;14.29;78.05
80116;BME280;69423;47.608;19.366;2023-08-07T02:23:05;98127.03;;;14.27;78.28
80116;BME280;69423;47.608;19.366;2023-08-07T02:23:36;98120.25;;;14.24;78.44
80116;BME280;69423;47.608;19.366;2023-08-07T02:24:07;98127.50;;;14.24;78.20
80116;BME280;69423;47.608;19.366;2023-08-07T02:24:38;98126.22;;;14.26;78.36
80116;BME280;69423;47.608;19.366;2023-08-07T02:25:09;98128.19;;;14.31;78.71
80116;BME280;69423;47.608;19.366;2023-08-07T02:25:40;98123.31;;;14.28;79.26
80116;BME280;69423;47.608;19.366;2023-08-07T02:26:11;98113.94;;;14.18;78.81
80116;BME280;69423;47.608;19.366;2023-08-07T02:26:42;98120.47;;;14.23;78.79
80116;BME280;69423;47.608;19.366;2023-08-07T02:27:13;98117.78;;;14.23;78.91
80116;BME280;69423;47.608;19.366;2023-08-07T02:27:44;98122.56;;;14.21;79.04
80116;BME280;69423;47.608;19.366;2023-08-07T02:28:15;98125.50;;;14.19;79.22
80116;BME280;69423;47.608;19.366;2023-08-07T02:28:46;98118.63;;;14.23;79.28
80116;BME280;69423;47.608;19.366;2023-08-07T02:29:17;98125.41;;;14.26;79.27
80116;BME280;69423;47.608;19.366;2023-08-07T02:29:48;98124.94;;;14.29;78.70
80116;BME280;69423;47.608;19.366;2023-08-07T02:30:21;98122.25;;;14.29;79.53
80116;BME280;69423;47.608;19.366;2023-08-07T02:30:52;98118.97;;;14.27;78.80
80116;BME280;69423;47.608;19.366;2023-08-07T02:31:25;98120.25;;;14.24;78.84
80116;BME280;69423;47.608;19.366;2023-08-07T02:31:56;98128.19;;;14.19;78.80
80116;BME280;69423;47.608;19.366;2023-08-07T02:32:27;98121.75;;;14.20;79.22
80116;BME280;69423;47.608;19.366;2023-08-07T02:32:58;98128.50;;;14.23;78.96
80116;BME280;69423;47.608;19.366;2023-08-07T02:33:29;98123.41;;;14.21;78.88
80116;BME280;69423;47.608;19.366;2023-08-07T02:34:03;98124.44;;;14.20;78.87
80116;BME280;69423;47.608;19.366;2023-08-07T02:34:34;98129.78;;;14.20;79.98
80116;BME280;69423;47.608;19.366;2023-08-07T02:35:05;98127.94;;;14.21;78.70
80116;BME280;69423;47.608;19.366;2023-08-07T02:35:36;98123.84;;;14.18;78.93
80116;BME280;69423;47.608;19.366;2023-08-07T02:36:07;98125.84;;;14.23;79.00
80116;BME280;69423;47.608;19.366;2023-08-07T02:36:38;98116.53;;;14.25;79.60
80116;BME280;69423;47.608;19.366;2023-08-07T02:37:09;98122.81;;;14.19;78.95
80116;BME280;69423;47.608;19.366;2023-08-07T02:37:40;98120.19;;;14.12;78.95
80116;BME280;69423;47.608;19.366;2023-08-07T02:38:11;98124.31;;;14.15;79.58
80116;BME280;69423;47.608;19.366;2023-08-07T02:38:42;98125.34;;;14.14;78.69
80116;BME280;69423;47.608;19.366;2023-08-07T02:39:13;98127.09;;;14.08;79.50
80116;BME280;69423;47.608;19.366;2023-08-07T02:39:45;98121.47;;;14.10;78.82
80116;BME280;69423;47.608;19.366;2023-08-07T02:40:16;98128.59;;;14.16;79.00
80116;BME280;69423;47.608;19.366;2023-08-07T02:40:49;98129.41;;;14.16;78.88
80116;BME280;69423;47.608;19.366;2023-08-07T02:41:20;98129.28;;;14.11;78.52
80116;BME280;69423;47.608;19.366;2023-08-07T02:41:51;98119.75;;;14.15;78.96
80116;BME280;69423;47.608;19.366;2023-08-07T02:42:22;98128.19;;;14.19;79.09
80116;BME280;69423;47.608;19.366;2023-08-07T02:42:53;98126.53;;;14.18;78.90
80116;BME280;69423;47.608;19.366;2023-08-07T02:43:24;98120.94;;;14.20;78.21
80116;BME280;69423;47.608;19.366;2023-08-07T02:43:57;98121.53;;;14.22;78.37
80116;BME280;69423;47.608;19.366;2023-08-07T02:44:28;98116.38;;;14.20;79.00
80116;BME280;69423;47.608;19.366;2023-08-07T02:44:59;98115.09;;;14.23;78.83
80116;BME280;69423;47.608;19.366;2023-08-07T02:45:30;98120.94;;;14.20;78.60
80116;BME280;69423;47.608;19.366;2023-08-07T02:46:01;98116.38;;;14.20;78.51
80116;BME280;69423;47.608;19.366;2023-08-07T02:46:32;98122.94;;;14.24;78.39
80116;BME280;69423;47.608;19.366;2023-08-07T02:47:06;98119.06;;;14.20;78.57
80116;BME280;69423;47.608;19.366;2023-08-07T02:47:37;98113.72;;;14.20;77.98
80116;BME280;69423;47.608;19.366;2023-08-07T02:48:08;98117.66;;;14.17;77.87
80116;BME280;69423;47.608;19.366;2023-08-07T02:48:39;98107.31;;;14.21;78.45
80116;BME280;69423;47.608;19.366;2023-08-07T02:49:10;98118.84;;;14.22;77.61
80116;BME280;69423;47.608;19.366;2023-08-07T02:49:41;98119.44;;;14.24;78.37